createdAt,value
2023-04-26T00:00:55.591Z,48.03
2023-04-26T00:03:23.622Z,48.11
2023-04-26T00:05:51.131Z,48.21
2023-04-26T00:08:19.819Z,48.39
2023-04-26T00:10:46.857Z,48.53
2023-04-26T00:13:14.108Z,48.67
2023-04-26T00:15:41.314Z,48.81
2023-04-26T00:18:08.552Z,48.90
2023-04-26T00:20:35.656Z,48.92
2023-04-26T00:23:03.447Z,49.01
2023-04-26T00:25:31.495Z,49.24
2023-04-26T00:27:58.806Z,49.34
2023-04-26T00:30:25.959Z,49.51
2023-04-26T00:32:53.165Z,49.63
2023-04-26T00:35:20.724Z,49.77
2023-04-26T00:37:47.956Z,49.80
2023-04-26T00:40:17.362Z,50.07
2023-04-26T00:42:44.554Z,50.22
2023-04-26T00:45:11.676Z,50.28
2023-04-26T00:47:38.874Z,50.36
2023-04-26T00:50:06.372Z,50.51
2023-04-26T00:52:33.512Z,50.64
2023-04-26T00:55:00.727Z,50.68
2023-04-26T00:57:27.881Z,50.86
2023-04-26T00:59:55.339Z,50.96
2023-04-26T01:02:22.948Z,51.02
2023-04-26T01:05:57.731Z,51.19
2023-04-26T01:08:27.326Z,51.27
2023-04-26T01:10:54.509Z,51.36
2023-04-26T01:13:21.952Z,51.52
2023-04-26T01:15:50.336Z,51.62
2023-04-26T01:18:18.065Z,51.74
2023-04-26T01:20:47.049Z,51.99
2023-04-26T01:23:15.305Z,52.08
2023-04-26T01:25:42.371Z,52.24
2023-04-26T01:28:09.542Z,52.19
2023-04-26T01:30:39.338Z,52.28
2023-04-26T01:33:08.790Z,52.17
2023-04-26T01:35:36.410Z,52.49
2023-04-26T01:38:04.570Z,52.59
2023-04-26T01:40:31.847Z,52.72
2023-04-26T01:42:59.270Z,52.82
2023-04-26T01:45:31.262Z,53.11
2023-04-26T01:48:17.208Z,53.12
2023-04-26T01:50:44.922Z,53.40
2023-04-26T01:53:13.696Z,53.48
2023-04-26T01:55:41.937Z,53.53
2023-04-26T01:58:09.864Z,53.67
2023-04-26T02:00:38.223Z,53.71
2023-04-26T02:03:06.049Z,53.76
2023-04-26T02:05:33.539Z,53.80
2023-04-26T02:08:01.865Z,53.87
2023-04-26T02:10:32.046Z,53.94
2023-04-26T02:12:59.367Z,54.10
2023-04-26T02:15:27.645Z,54.24
2023-04-26T02:17:56.894Z,54.38
2023-04-26T02:20:24.320Z,54.50
2023-04-26T02:22:51.777Z,54.70
2023-04-26T02:25:19.150Z,54.88
2023-04-26T02:27:46.919Z,54.96
2023-04-26T02:30:16.188Z,55.06
2023-04-26T02:40:43.909Z,57.64
2023-04-26T02:43:11.771Z,58.33
2023-04-26T02:45:42.911Z,58.77
2023-04-26T02:48:11.799Z,59.00
2023-04-26T02:50:39.686Z,59.50
2023-04-26T02:53:08.187Z,59.55
2023-04-26T02:55:37.954Z,59.60
2023-04-26T02:58:06.131Z,59.76
2023-04-26T03:01:06.649Z,59.78
2023-04-26T03:03:37.948Z,60.26
2023-04-26T03:06:05.876Z,60.61
2023-04-26T03:08:34.878Z,60.85
2023-04-26T03:11:02.751Z,61.14
2023-04-26T03:13:30.258Z,61.28
2023-04-26T03:15:58.086Z,61.30
2023-04-26T03:18:25.353Z,61.24
2023-04-26T03:20:54.111Z,61.43
2023-04-26T03:23:26.090Z,61.52
2023-04-26T03:25:53.452Z,61.46
2023-04-26T03:28:21.709Z,61.40
2023-04-26T03:30:51.575Z,61.25
2023-04-26T03:33:20.479Z,61.38
2023-04-26T03:35:48.931Z,61.52
2023-04-26T03:38:17.134Z,61.64
2023-04-26T03:40:49.691Z,61.98
2023-04-26T03:43:23.036Z,61.95
2023-04-26T03:45:52.463Z,61.96
2023-04-26T03:48:19.467Z,62.12
2023-04-26T03:51:00.788Z,62.32
2023-04-26T03:53:50.152Z,62.27
2023-04-26T03:56:24.062Z,62.61
2023-04-26T03:58:52.393Z,62.71
2023-04-26T04:01:20.784Z,62.96
2023-04-26T04:03:51.410Z,63.25
2023-04-26T04:06:21.452Z,63.61
2023-04-26T04:08:49.242Z,64.01
2023-04-26T04:11:20.021Z,64.16
2023-04-26T04:13:49.031Z,64.19
2023-04-26T04:16:16.235Z,64.28
2023-04-26T04:18:44.087Z,64.18
2023-04-26T04:21:11.483Z,64.19
2023-04-26T04:23:39.091Z,64.26
2023-04-26T04:26:31.722Z,64.26
2023-04-26T04:29:08.853Z,64.23
2023-04-26T04:31:41.855Z,64.50
2023-04-26T04:34:09.601Z,64.66
2023-04-26T04:37:02.262Z,64.77
2023-04-26T04:39:49.497Z,64.99
2023-04-26T04:42:18.433Z,64.69
2023-04-26T04:44:46.304Z,63.93
2023-04-26T04:47:14.826Z,63.67
2023-04-26T04:49:42.896Z,63.32
2023-04-26T04:52:11.544Z,63.24
2023-04-26T04:54:38.757Z,63.23
2023-04-26T04:57:11.006Z,62.96
2023-04-26T04:59:39.124Z,62.88
2023-04-26T05:02:06.968Z,62.72
2023-04-26T05:04:35.184Z,62.55
2023-04-26T05:07:02.706Z,62.28
2023-04-26T05:09:30.053Z,61.73
2023-04-26T05:11:58.745Z,61.29
2023-04-26T05:14:28.866Z,60.82
2023-04-26T05:16:57.770Z,60.67
2023-04-26T05:19:27.472Z,60.44
2023-04-26T05:21:54.627Z,60.13
2023-04-26T05:24:21.734Z,59.57
2023-04-26T05:26:48.892Z,59.29
2023-04-26T05:29:54.592Z,59.28
2023-04-26T05:32:42.224Z,59.41
2023-04-26T05:35:17.435Z,59.74
2023-04-26T05:37:46.014Z,59.81
2023-04-26T05:40:15.220Z,60.02
2023-04-26T05:42:42.753Z,60.23
2023-04-26T05:45:10.776Z,60.28
2023-04-26T05:47:38.991Z,60.38
2023-04-26T05:50:07.844Z,60.37
2023-04-26T05:52:36.467Z,60.25
2023-04-26T05:55:06.551Z,60.08
2023-04-26T05:57:42.408Z,59.90
2023-04-26T06:00:11.032Z,59.66
2023-04-26T06:02:45.499Z,59.41
2023-04-26T06:05:16.093Z,59.40
2023-04-26T06:07:44.349Z,59.02
2023-04-26T06:10:12.623Z,58.50
2023-04-26T06:12:41.024Z,58.00
2023-04-26T06:15:10.121Z,57.75
2023-04-26T06:17:41.175Z,57.38
2023-04-26T06:20:09.958Z,57.24
2023-04-26T06:22:38.640Z,56.75
2023-04-26T06:25:06.771Z,56.49
2023-04-26T06:27:37.357Z,56.45
2023-04-26T06:30:06.433Z,56.47
2023-04-26T06:32:34.052Z,56.25
2023-04-26T06:35:02.152Z,55.62
2023-04-26T06:37:29.908Z,55.40
2023-04-26T06:39:56.896Z,54.83
2023-04-26T06:42:24.887Z,54.56
2023-04-26T06:45:16.574Z,54.65
2023-04-26T06:47:44.796Z,54.59
2023-04-26T06:50:12.266Z,54.91
2023-04-26T06:52:41.914Z,55.42
2023-04-26T06:55:18.471Z,55.49
2023-04-26T06:57:47.687Z,55.56
2023-04-26T07:00:17.986Z,55.49
2023-04-26T07:02:45.666Z,55.71
2023-04-26T07:05:15.155Z,55.48
2023-04-26T07:07:43.104Z,55.17
2023-04-26T07:10:17.629Z,54.82
2023-04-26T07:12:47.608Z,54.20
2023-04-26T07:15:17.263Z,53.91
2023-04-26T07:17:45.844Z,53.63
2023-04-26T07:20:23.838Z,53.08
2023-04-26T07:22:58.255Z,52.35
2023-04-26T07:25:25.513Z,51.64
2023-04-26T07:27:53.140Z,51.30
2023-04-26T07:30:22.178Z,51.36
2023-04-26T07:32:49.441Z,50.94
2023-04-26T07:35:18.067Z,50.73
2023-04-26T07:37:45.413Z,50.51
2023-04-26T07:40:13.756Z,50.10
2023-04-26T07:42:41.844Z,49.73
2023-04-26T07:45:09.769Z,49.38
2023-04-26T07:47:38.468Z,49.36
2023-04-26T07:50:13.083Z,48.84
2023-04-26T07:52:40.565Z,48.34
2023-04-26T07:55:12.553Z,48.01
2023-04-26T07:57:40.242Z,47.64
2023-04-26T08:00:13.773Z,47.38
2023-04-26T08:02:50.252Z,47.12
2023-04-26T08:05:19.890Z,47.32
2023-04-26T08:07:49.381Z,47.03
2023-04-26T08:10:16.669Z,46.25
2023-04-26T08:12:51.568Z,45.78
2023-04-26T08:15:20.146Z,45.78
2023-04-26T08:17:47.929Z,44.81
2023-04-26T08:20:18.342Z,43.71
2023-04-26T08:22:45.353Z,43.05
2023-04-26T08:25:15.204Z,42.78
2023-04-26T08:27:44.300Z,42.38
2023-04-26T08:30:11.792Z,42.24
2023-04-26T08:32:40.488Z,41.61
2023-04-26T08:35:09.151Z,40.46
2023-04-26T08:37:39.591Z,40.11
2023-04-26T08:40:10.469Z,39.96
2023-04-26T08:42:44.128Z,39.37
2023-04-26T08:45:12.451Z,38.97
2023-04-26T08:48:04.666Z,38.72
2023-04-26T08:50:34.818Z,38.94
2023-04-26T08:53:01.961Z,39.43
2023-04-26T08:55:29.331Z,39.93
2023-04-26T08:57:56.867Z,40.29
2023-04-26T09:00:24.027Z,40.80
2023-04-26T09:02:52.307Z,40.95
2023-04-26T09:05:23.538Z,40.81
2023-04-26T09:07:57.437Z,41.07
2023-04-26T09:10:25.369Z,41.53
2023-04-26T09:12:55.250Z,41.81
2023-04-26T09:15:27.272Z,41.94
2023-04-26T09:17:55.717Z,42.21
2023-04-26T09:20:30.087Z,42.77
2023-04-26T09:23:19.488Z,43.13
2023-04-26T09:25:56.847Z,43.58
2023-04-26T09:28:25.979Z,43.89
2023-04-26T09:30:52.955Z,44.19
2023-04-26T09:33:22.666Z,44.59
2023-04-26T09:35:51.167Z,45.05
2023-04-26T09:38:19.670Z,45.37
2023-04-26T09:40:52.769Z,45.84
2023-04-26T09:43:21.941Z,45.81
2023-04-26T09:45:53.354Z,46.26
2023-04-26T09:48:30.748Z,46.46
2023-04-26T09:51:05.499Z,46.88
2023-04-26T09:53:47.330Z,47.57
2023-04-26T09:56:17.028Z,48.49
2023-04-26T09:58:46.648Z,49.28
2023-04-26T10:01:18.250Z,49.90
2023-04-26T10:03:46.259Z,50.52
2023-04-26T10:06:15.572Z,50.96
2023-04-26T10:08:43.732Z,51.03
2023-04-26T10:11:12.518Z,50.90
2023-04-26T10:13:42.271Z,51.02
2023-04-26T10:16:11.412Z,50.65
2023-04-26T10:18:38.468Z,50.47
2023-04-26T10:21:18.284Z,50.98
2023-04-26T10:23:45.379Z,51.33
2023-04-26T10:26:51.133Z,51.31
2023-04-26T10:29:22.236Z,50.91
2023-04-26T10:32:03.445Z,50.06
2023-04-26T10:34:32.109Z,49.13
2023-04-26T10:37:08.693Z,48.88
2023-04-26T10:39:38.848Z,49.04
2023-04-26T10:42:24.749Z,49.24
2023-04-26T10:44:58.257Z,49.25
2023-04-26T10:47:38.992Z,49.55
2023-04-26T10:50:12.099Z,49.86
2023-04-26T10:53:03.885Z,50.11
2023-04-26T10:55:37.662Z,50.25
2023-04-26T10:58:29.076Z,50.14
2023-04-26T11:01:06.622Z,49.76
2023-04-26T11:03:34.676Z,49.20
2023-04-26T11:06:07.671Z,48.68
2023-04-26T11:08:38.709Z,48.79
2023-04-26T11:11:08.616Z,48.93
2023-04-26T11:13:40.932Z,48.91
2023-04-26T11:16:12.252Z,49.07
2023-04-26T11:18:49.019Z,49.18
2023-04-26T11:21:19.035Z,49.45
2023-04-26T11:23:55.493Z,49.71
2023-04-26T11:26:22.509Z,49.86
2023-04-26T11:28:50.978Z,50.01
2023-04-26T11:31:18.215Z,49.99
2023-04-26T11:33:48.473Z,49.76
2023-04-26T11:36:19.359Z,49.26
2023-04-26T11:38:53.790Z,48.97
2023-04-26T11:41:20.796Z,48.91
2023-04-26T11:43:49.025Z,48.85
2023-04-26T11:46:16.268Z,48.98
2023-04-26T11:48:44.634Z,49.20
2023-04-26T11:51:14.224Z,49.44
2023-04-26T11:53:43.150Z,49.56
2023-04-26T11:56:16.977Z,49.67
2023-04-26T11:59:03.412Z,49.74
2023-04-26T12:01:41.712Z,49.73
2023-04-26T12:04:10.358Z,49.63
2023-04-26T12:06:47.505Z,49.54
2023-04-26T12:09:14.667Z,49.59
2023-04-26T12:11:41.704Z,49.62
2023-04-26T12:14:10.988Z,49.39
2023-04-26T12:16:40.399Z,49.23
2023-04-26T12:19:12.735Z,49.30
2023-04-26T12:21:42.952Z,49.21
2023-04-26T12:24:38.107Z,49.14
2023-04-26T12:27:06.357Z,49.06
2023-04-26T12:29:33.873Z,49.07
2023-04-26T12:32:04.287Z,49.29
2023-04-26T12:34:31.606Z,49.52
2023-04-26T12:37:00.505Z,49.56
2023-04-26T12:39:27.679Z,49.97
2023-04-26T12:41:57.778Z,50.26
2023-04-26T12:44:25.788Z,50.39
2023-04-26T12:46:52.987Z,50.47
2023-04-26T12:49:21.576Z,50.53
2023-04-26T12:51:48.802Z,50.69
2023-04-26T12:54:17.784Z,50.74
2023-04-26T12:56:46.001Z,50.89
2023-04-26T12:59:13.209Z,51.07
2023-04-26T13:01:45.683Z,51.09
2023-04-26T13:04:20.801Z,51.19
2023-04-26T13:06:50.435Z,51.51
2023-04-26T13:09:19.170Z,51.90
2023-04-26T13:11:47.648Z,52.48
2023-04-26T13:14:16.226Z,53.02
2023-04-26T13:16:45.963Z,53.50
2023-04-26T13:19:16.644Z,54.08
2023-04-26T13:21:43.781Z,54.76
2023-04-26T13:24:10.775Z,55.32
2023-04-26T13:26:37.703Z,55.92
2023-04-26T13:29:04.700Z,56.60
2023-04-26T13:31:32.661Z,57.15
2023-04-26T13:33:59.686Z,57.86
2023-04-26T13:36:27.526Z,58.60
2023-04-26T13:38:54.537Z,59.28
2023-04-26T13:41:22.038Z,59.88
2023-04-26T13:43:49.817Z,60.51
2023-04-26T13:46:18.184Z,61.13
2023-04-26T13:48:45.516Z,61.44
2023-04-26T13:51:12.781Z,61.40
2023-04-26T13:53:41.388Z,61.69
2023-04-26T13:56:10.578Z,61.81
2023-04-26T13:58:37.671Z,62.15
2023-04-26T14:01:04.660Z,62.66
2023-04-26T14:03:34.949Z,63.48
2023-04-26T14:06:03.079Z,64.30
2023-04-26T14:08:32.875Z,65.25
2023-04-26T14:11:01.602Z,65.93
2023-04-26T14:13:33.464Z,66.38
2023-04-26T14:16:00.808Z,66.64
2023-04-26T14:18:28.657Z,67.09
2023-04-26T14:20:55.677Z,67.18
2023-04-26T14:23:23.154Z,67.33
2023-04-26T14:25:53.571Z,67.49
2023-04-26T14:28:21.189Z,67.61
2023-04-26T14:30:48.171Z,67.46
2023-04-26T14:33:16.955Z,67.20
2023-04-26T14:35:45.020Z,67.00
2023-04-26T14:38:12.119Z,67.29
2023-04-26T14:40:39.110Z,67.41
2023-04-26T14:43:07.414Z,67.66
2023-04-26T14:45:44.218Z,68.05
2023-04-26T14:48:11.975Z,68.73
2023-04-26T14:50:38.940Z,69.32
2023-04-26T14:53:06.263Z,69.79
2023-04-26T14:55:34.330Z,70.28
2023-04-26T14:58:03.088Z,70.68
2023-04-26T15:00:30.263Z,70.89
2023-04-26T15:02:59.833Z,71.20
2023-04-26T15:05:27.938Z,71.55
2023-04-26T15:07:56.400Z,71.89
2023-04-26T15:10:27.091Z,72.38
2023-04-26T15:12:55.943Z,72.43
2023-04-26T15:15:28.400Z,72.71
2023-04-26T15:17:58.174Z,72.94
2023-04-26T15:20:25.268Z,73.17
2023-04-26T15:22:52.634Z,73.50
2023-04-26T15:25:20.613Z,73.62
2023-04-26T15:27:49.809Z,73.57
2023-04-26T15:30:18.556Z,73.55
2023-04-26T15:32:51.401Z,73.60
2023-04-26T15:35:18.711Z,73.63
2023-04-26T15:37:48.608Z,73.65
2023-04-26T15:40:16.190Z,73.49
2023-04-26T15:42:45.767Z,73.45
2023-04-26T15:45:13.088Z,73.51
2023-04-26T15:47:41.590Z,73.22
2023-04-26T15:50:10.127Z,73.07
2023-04-26T15:52:39.401Z,73.07
2023-04-26T15:55:15.217Z,72.96
2023-04-26T15:57:45.502Z,72.78
2023-04-26T16:00:15.745Z,72.62
2023-04-26T16:02:45.889Z,72.24
2023-04-26T16:05:13.552Z,72.02
2023-04-26T16:07:41.956Z,71.90
2023-04-26T16:10:10.158Z,71.55
2023-04-26T16:12:43.233Z,71.38
2023-04-26T16:15:11.741Z,71.18
2023-04-26T16:18:06.986Z,70.89
2023-04-26T16:20:34.708Z,70.86
2023-04-26T16:23:02.101Z,70.70
2023-04-26T16:25:31.353Z,70.49
2023-04-26T16:27:59.816Z,70.53
2023-04-26T16:30:28.774Z,70.62
2023-04-26T16:32:58.175Z,70.57
2023-04-26T16:35:27.517Z,70.55
2023-04-26T16:37:54.714Z,70.40
2023-04-26T16:40:23.632Z,70.45
2023-04-26T16:42:52.101Z,70.50
2023-04-26T16:45:21.233Z,70.49
2023-04-26T16:47:49.807Z,70.42
2023-04-26T16:50:19.242Z,70.50
2023-04-26T16:52:46.597Z,70.64
2023-04-26T16:55:15.516Z,70.58
2023-04-26T16:58:11.515Z,70.54
2023-04-26T17:00:40.740Z,70.60
2023-04-26T17:03:11.732Z,70.76
2023-04-26T17:05:43.492Z,70.75
2023-04-26T17:08:10.848Z,70.69
2023-04-26T17:10:39.960Z,70.69
2023-04-26T17:13:08.371Z,70.70
2023-04-26T17:15:36.886Z,70.75
2023-04-26T17:18:04.790Z,70.62
2023-04-26T17:20:32.751Z,70.58
2023-04-26T17:23:02.708Z,70.50
2023-04-26T17:25:33.433Z,70.60
2023-04-26T17:28:00.791Z,70.68
2023-04-26T17:30:30.165Z,70.73
2023-04-26T17:33:01.049Z,70.82
2023-04-26T17:35:28.111Z,70.96
2023-04-26T17:37:57.732Z,71.04
2023-04-26T17:40:26.562Z,71.19
2023-04-26T17:42:56.598Z,71.16
2023-04-26T17:45:24.273Z,71.17
2023-04-26T17:47:51.971Z,71.40
2023-04-26T17:50:20.770Z,71.48
2023-04-26T17:52:50.509Z,71.40
2023-04-26T17:55:18.507Z,71.51
2023-04-26T17:57:46.257Z,71.49
2023-04-26T18:00:14.479Z,71.58
2023-04-26T18:02:46.625Z,71.67
2023-04-26T18:05:16.136Z,71.68
2023-04-26T18:07:43.254Z,71.67
2023-04-26T18:10:10.521Z,71.66
2023-04-26T18:12:45.085Z,71.53
2023-04-26T18:15:13.374Z,71.59
2023-04-26T18:17:45.195Z,71.60
2023-04-26T18:20:16.500Z,71.84
2023-04-26T18:22:46.167Z,71.87
2023-04-26T18:25:17.392Z,71.96
2023-04-26T18:27:46.345Z,72.11
2023-04-26T18:30:17.881Z,72.15
2023-04-26T18:32:46.123Z,72.20
2023-04-26T18:35:16.267Z,72.24
2023-04-26T18:37:47.312Z,72.26
2023-04-26T18:40:16.516Z,72.30
2023-04-26T18:42:44.646Z,72.35
2023-04-26T18:45:12.338Z,72.28
2023-04-26T18:47:40.014Z,72.28
2023-04-26T18:50:07.733Z,72.30
2023-04-26T18:52:35.973Z,72.20
2023-04-26T18:55:08.194Z,72.36
2023-04-26T18:57:36.624Z,72.32
2023-04-26T19:00:07.453Z,72.31
2023-04-26T19:02:39.542Z,72.33
2023-04-26T19:05:10.150Z,72.38
2023-04-26T19:07:42.904Z,72.27
2023-04-26T19:10:13.731Z,72.37
2023-04-26T19:12:41.375Z,72.26
2023-04-26T19:15:17.083Z,72.27
2023-04-26T19:17:45.058Z,72.31
2023-04-26T19:20:15.582Z,72.28
2023-04-26T19:22:56.056Z,72.21
2023-04-26T19:25:27.472Z,72.01
2023-04-26T19:27:58.919Z,72.01
2023-04-26T19:30:27.326Z,71.97
2023-04-26T19:32:57.687Z,71.94
2023-04-26T19:35:28.158Z,71.80
2023-04-26T19:37:56.805Z,71.96
2023-04-26T19:40:28.459Z,72.24
2023-04-26T19:42:55.644Z,72.35
2023-04-26T19:45:23.332Z,72.65
2023-04-26T19:47:51.991Z,73.25
2023-04-26T19:50:21.974Z,73.78
2023-04-26T19:52:52.298Z,74.35
2023-04-26T19:55:19.978Z,74.61
2023-04-26T19:57:47.691Z,75.10
2023-04-26T20:00:18.587Z,75.49
2023-04-26T20:02:49.407Z,75.88
2023-04-26T20:05:19.164Z,76.27
2023-04-26T20:07:47.922Z,76.61
2023-04-26T20:10:15.512Z,77.12
2023-04-26T20:12:47.245Z,77.25
2023-04-26T20:15:16.243Z,77.54
2023-04-26T20:17:47.366Z,77.87
2023-04-26T20:20:15.821Z,77.93
2023-04-26T20:22:42.894Z,78.01
2023-04-26T20:25:13.085Z,78.19
2023-04-26T20:27:42.130Z,78.15
2023-04-26T20:30:10.529Z,78.27
2023-04-26T20:32:39.157Z,78.31
2023-04-26T20:35:08.402Z,78.41
2023-04-26T20:37:35.591Z,78.40
2023-04-26T20:40:07.471Z,78.38
2023-04-26T20:42:34.947Z,78.58
2023-04-26T20:45:10.063Z,78.80
2023-04-26T20:47:42.280Z,78.80
2023-04-26T20:50:09.596Z,79.04
2023-04-26T20:52:36.751Z,79.12
2023-04-26T20:55:07.615Z,79.25
2023-04-26T20:57:37.929Z,79.31
2023-04-26T21:00:07.318Z,79.08
2023-04-26T21:02:37.576Z,78.88
2023-04-26T21:05:05.621Z,78.82
2023-04-26T21:07:33.154Z,78.73
2023-04-26T21:10:03.806Z,78.52
2023-04-26T21:12:31.982Z,78.60
2023-04-26T21:15:00.950Z,78.79
2023-04-26T21:17:28.203Z,78.76
2023-04-26T21:19:56.336Z,78.90
2023-04-26T21:22:23.747Z,78.69
2023-04-26T21:24:51.614Z,78.35
2023-04-26T21:27:18.817Z,78.05
2023-04-26T21:29:45.877Z,77.72
2023-04-26T21:32:14.028Z,77.63
2023-04-26T21:34:42.895Z,77.68
2023-04-26T21:37:10.258Z,77.49
2023-04-26T21:39:39.234Z,77.49
2023-04-26T21:42:06.861Z,77.18
2023-04-26T21:44:34.028Z,76.90
2023-04-26T21:47:01.221Z,76.94
2023-04-26T21:49:29.083Z,76.87
2023-04-26T21:51:56.247Z,76.76
2023-04-26T21:54:23.351Z,76.88
2023-04-26T21:56:50.686Z,76.97
2023-04-26T21:59:18.865Z,76.95
2023-04-26T22:01:45.936Z,76.93
2023-04-26T22:04:14.803Z,76.87
2023-04-26T22:06:43.346Z,76.83
2023-04-26T22:09:10.907Z,76.82
2023-04-26T22:11:39.654Z,77.04
2023-04-26T22:14:06.820Z,76.91
2023-04-26T22:16:34.756Z,76.60
2023-04-26T22:19:01.848Z,76.47
2023-04-26T22:21:29.562Z,76.39
2023-04-26T22:23:56.873Z,76.20
2023-04-26T22:26:27.675Z,76.18
2023-04-26T22:28:57.736Z,76.02
2023-04-26T22:31:27.594Z,75.81
2023-04-26T22:34:01.254Z,75.65
2023-04-26T22:36:28.548Z,75.30
2023-04-26T22:38:55.615Z,75.26
2023-04-26T22:41:23.021Z,75.11
2023-04-26T22:43:51.601Z,75.07
2023-04-26T22:46:20.907Z,74.92
2023-04-26T22:48:48.157Z,74.92
2023-04-26T22:51:15.734Z,75.00
2023-04-26T22:53:44.403Z,75.02
2023-04-26T22:56:12.073Z,75.20
2023-04-26T22:58:39.036Z,75.41
2023-04-26T23:01:06.149Z,75.50
2023-04-26T23:03:36.899Z,75.65
2023-04-26T23:06:06.551Z,75.74
2023-04-26T23:08:34.099Z,75.86
2023-04-26T23:11:07.183Z,75.63
2023-04-26T23:13:36.047Z,75.27
2023-04-26T23:16:04.045Z,74.96
2023-04-26T23:18:31.633Z,74.59
2023-04-26T23:20:58.831Z,74.47
2023-04-26T23:23:26.417Z,74.23
2023-04-26T23:25:53.366Z,74.09
2023-04-26T23:28:20.325Z,74.03
2023-04-26T23:30:48.709Z,73.84
2023-04-26T23:33:17.840Z,73.85
2023-04-26T23:35:45.963Z,73.72
2023-04-26T23:38:12.969Z,73.52
2023-04-26T23:40:40.242Z,73.49
2023-04-26T23:43:08.741Z,73.14
2023-04-26T23:45:35.838Z,72.73
2023-04-26T23:48:03.011Z,72.59
2023-04-26T23:50:31.056Z,72.39
2023-04-26T23:52:58.236Z,71.99
2023-04-26T23:55:28.291Z,71.95
2023-04-26T23:57:55.505Z,72.04
